Terminal Aerodrome Forecast
Issued by NWS North Platte, NE

Home | Current Version | Previous Version | Text Only | Print | Product List | Glossary On
Versions: 1 2 3 4 5 6 7 8 9 10 11 12 13
000
FTUS43 KLBF 190520
TAFLBF
TAF
KLBF 190520Z 1906/2006 VRB03KT P6SM SKC
     FM191600 18007KT P6SM FEW250
     FM192300 17008KT P6SM VCTS SCT080CB BKN150 PROB30 1923/2003 5SM
      TSRA BKN070CB
     FM200300 14008KT P6SM BKN200=

USA.gov is the U.S. government's official web portal to all federal, state and local government web resources and services.